Hub


Voltar

 INFORMAÇÕES METEOROLÓGICAS

METAR FOR PAPH


ADDS - METARS form results

(1650 UTC 24 June 2019)
Data provider http://aviationweather.gov/metar/data/
 
METAR text: PAPH 241556Z AUTO 00000KT 7SM OVC002 07/07 A3020 RMK AO2 SLP231 T00670067
Conditions at: PAPH (PORT HEIDEN , AK, US) observed 1556 UTC 24 June 2019
Temperature: 6.7°C (44°F)
Dewpoint: 6.7°C (44°F) [RH = 100%]
Pressure (altimeter): 30.20 inches Hg (1022.8 mb)
[Sea-level pressure: 1023.1 mb]
Winds: calm
Visibility: 7 miles (11 km)
Ceiling: 200 feet AGL
Clouds: overcast cloud deck at 200 feet AGL
Weather: automated observation with no human augmentation;
there may or may not be significant weather present at this time


 MAPA DO AEROPORTO


 INFORMAÇÕES DA PISTA

Pista 05 Tamanho da pista 5000 ft Largura da pista 100 ft
Elevação da pista 90 ft Ranhura da pista 0 ft Proa da pista 70
Pista 23 Tamanho da pista 5000 ft Largura da pista 100 ft
Elevação da pista 95 ft Ranhura da pista 0 ft Proa da pista 250
Pista 13 Tamanho da pista 4000 ft Largura da pista 100 ft
Elevação da pista 76 ft Ranhura da pista 0 ft Proa da pista 147
Pista 31 Tamanho da pista 4000 ft Largura da pista 100 ft
Elevação da pista 83 ft Ranhura da pista 0 ft Proa da pista 327

 FREQUÊNCIAS DO AEROPORTO

Tipo AWOS Nome AWOS 3 Frequência 135.4 MHZ
Tipo CNTR Nome ANCHORAGE Frequência 132.9 MHZ
Tipo CTAF Nome CTAF Frequência 122.8 MHZ
Tipo FSS Nome KENAI RDO Frequência 122 MHZ

 AUXÍLIOS DE NAVEGAÇÃO PRÓXIMOS AO AEROPORTO